createdAt,value
2022-09-09T00:01:26.499Z,15.97
2022-09-09T00:03:57.927Z,15.69
2022-09-09T00:06:32.104Z,15.36
2022-09-09T00:09:05.000Z,15.32
2022-09-09T00:11:42.527Z,15.36
2022-09-09T00:14:18.402Z,15.33
2022-09-09T00:16:51.483Z,15.36
2022-09-09T00:19:23.983Z,15.36
2022-09-09T00:22:03.520Z,15.18
2022-09-09T00:24:39.867Z,15.02
2022-09-09T00:27:13.831Z,14.87
2022-09-09T00:29:46.319Z,14.71
2022-09-09T00:32:16.284Z,14.59
2022-09-09T00:34:51.019Z,14.48
2022-09-09T00:37:22.267Z,14.47
2022-09-09T00:39:53.113Z,14.51
2022-09-09T00:42:26.526Z,14.49
2022-09-09T00:45:00.873Z,14.46
2022-09-09T00:47:46.357Z,14.34
2022-09-09T00:50:25.952Z,14.25
2022-09-09T00:53:01.679Z,14.17
2022-09-09T00:55:36.839Z,14.23
2022-09-09T00:58:05.065Z,14.48
2022-09-09T01:00:37.965Z,14.63
2022-09-09T01:03:20.535Z,14.54
2022-09-09T01:05:53.015Z,14.36
2022-09-09T01:08:43.431Z,14.30
2022-09-09T01:11:18.288Z,14.39
2022-09-09T01:13:48.956Z,14.31
2022-09-09T01:16:18.776Z,14.37
2022-09-09T01:18:50.586Z,14.34
2022-09-09T01:21:24.935Z,14.30
2022-09-09T01:24:18.151Z,14.54
2022-09-09T01:27:03.729Z,14.42
2022-09-09T01:29:32.177Z,14.22
2022-09-09T01:32:01.943Z,13.90
2022-09-09T01:34:35.193Z,13.99
2022-09-09T01:37:06.751Z,13.89
2022-09-09T01:39:35.938Z,13.86
2022-09-09T01:42:12.363Z,13.75
2022-09-09T01:44:40.891Z,13.75
2022-09-09T01:47:09.782Z,13.35
2022-09-09T01:49:52.097Z,13.70
2022-09-09T01:52:25.210Z,13.54
2022-09-09T01:54:53.646Z,14.04
2022-09-09T01:57:29.451Z,13.97
2022-09-09T02:00:07.125Z,14.09
2022-09-09T02:02:48.308Z,13.95
2022-09-09T02:05:33.070Z,14.06
2022-09-09T02:08:07.511Z,14.17
2022-09-09T02:10:57.398Z,14.32
2022-09-09T02:13:39.663Z,14.11
2022-09-09T02:16:16.152Z,14.01
2022-09-09T02:18:50.096Z,13.93
2022-09-09T02:21:20.845Z,14.01
2022-09-09T02:23:53.065Z,13.86
2022-09-09T02:26:24.468Z,13.87
2022-09-09T02:29:18.737Z,13.81
2022-09-09T02:31:49.708Z,13.62
2022-09-09T02:34:24.752Z,13.27
2022-09-09T02:36:55.824Z,13.66
2022-09-09T02:39:24.199Z,13.64
2022-09-09T02:41:54.548Z,13.60
2022-09-09T02:44:32.943Z,13.94
2022-09-09T02:47:23.782Z,13.92
2022-09-09T02:50:03.445Z,13.60
2022-09-09T02:52:39.224Z,13.97
2022-09-09T02:55:10.419Z,14.19
2022-09-09T02:57:39.527Z,14.44
2022-09-09T03:00:12.207Z,14.51
2022-09-09T03:02:40.589Z,14.71
2022-09-09T03:05:09.982Z,14.71
2022-09-09T03:07:38.383Z,14.69
2022-09-09T03:10:07.991Z,14.47
2022-09-09T03:12:37.705Z,14.69
2022-09-09T03:15:06.840Z,14.74
2022-09-09T03:17:36.521Z,14.70
2022-09-09T03:20:05.474Z,14.62
2022-09-09T03:22:34.156Z,14.44
2022-09-09T03:25:03.730Z,14.49
2022-09-09T03:27:32.558Z,14.45
2022-09-09T03:30:03.753Z,14.41
2022-09-09T03:32:32.559Z,14.34
2022-09-09T03:35:02.263Z,14.26
2022-09-09T03:37:30.894Z,14.57
2022-09-09T03:40:00.630Z,14.90
2022-09-09T03:42:29.000Z,14.97
2022-09-09T03:45:00.468Z,14.66
2022-09-09T03:47:30.183Z,14.82
2022-09-09T03:50:09.745Z,15.10
2022-09-09T03:52:41.796Z,14.40
2022-09-09T03:55:16.091Z,14.24
2022-09-09T03:57:44.429Z,14.10
2022-09-09T04:00:13.635Z,14.47
2022-09-09T04:02:55.640Z,14.50
2022-09-09T04:05:25.588Z,14.39
2022-09-09T04:07:54.370Z,14.25
2022-09-09T04:10:26.304Z,14.16
2022-09-09T04:12:56.167Z,14.62
2022-09-09T04:15:24.554Z,14.67
2022-09-09T04:17:52.800Z,14.32
2022-09-09T04:20:21.014Z,14.23
2022-09-09T04:22:50.840Z,14.17
2022-09-09T04:25:19.229Z,14.42
2022-09-09T04:27:48.630Z,14.43
2022-09-09T04:30:17.550Z,14.71
2022-09-09T04:32:45.769Z,14.45
2022-09-09T04:35:15.682Z,14.51
2022-09-09T04:37:44.160Z,14.38
2022-09-09T04:40:14.346Z,14.54
2022-09-09T04:42:45.093Z,14.73
2022-09-09T04:45:15.939Z,14.55
2022-09-09T04:47:44.657Z,14.31
2022-09-09T04:50:13.273Z,14.37
2022-09-09T04:52:42.200Z,14.22
2022-09-09T04:55:11.402Z,14.24
2022-09-09T04:57:41.205Z,14.35
2022-09-09T05:00:14.588Z,14.52
2022-09-09T05:02:43.999Z,14.57
2022-09-09T05:05:13.238Z,14.34
2022-09-09T05:07:42.767Z,14.76
2022-09-09T05:10:11.644Z,14.89
2022-09-09T05:12:41.447Z,14.62
2022-09-09T05:15:12.843Z,14.90
2022-09-09T05:17:41.353Z,14.57
2022-09-09T05:20:14.497Z,14.76
2022-09-09T05:22:45.141Z,14.78
2022-09-09T05:25:13.702Z,14.94
2022-09-09T05:27:43.417Z,14.90
2022-09-09T05:30:12.703Z,15.33
2022-09-09T05:32:41.284Z,14.96
2022-09-09T05:35:11.140Z,15.14
2022-09-09T05:37:41.237Z,15.40
2022-09-09T05:40:10.564Z,15.35
2022-09-09T05:42:40.094Z,15.36
2022-09-09T05:45:12.609Z,15.41
2022-09-09T05:47:41.601Z,15.75
2022-09-09T05:50:14.978Z,15.75
2022-09-09T05:52:44.096Z,16.19
2022-09-09T05:55:12.531Z,16.05
2022-09-09T05:57:41.623Z,16.10
2022-09-09T06:00:16.195Z,15.55
2022-09-09T06:02:53.704Z,16.03
2022-09-09T06:05:23.929Z,16.49
2022-09-09T06:07:54.761Z,16.80
2022-09-09T06:10:23.414Z,17.19
2022-09-09T06:12:55.036Z,17.27
2022-09-09T06:15:25.151Z,17.28
2022-09-09T06:17:57.561Z,17.18
2022-09-09T06:20:26.511Z,17.14
2022-09-09T06:22:57.548Z,17.01
2022-09-09T06:25:26.294Z,17.35
2022-09-09T06:27:56.599Z,17.91
2022-09-09T06:30:26.505Z,18.10
2022-09-09T06:32:59.134Z,18.13
2022-09-09T06:35:27.843Z,17.98
2022-09-09T06:37:56.258Z,18.15
2022-09-09T06:40:25.400Z,18.24
2022-09-09T06:42:56.585Z,17.75
2022-09-09T06:45:42.302Z,18.10
2022-09-09T06:48:11.096Z,18.13
2022-09-09T06:50:40.950Z,18.11
2022-09-09T06:53:12.231Z,18.55
2022-09-09T06:55:45.483Z,18.23
2022-09-09T06:58:15.135Z,18.40
2022-09-09T07:00:46.004Z,18.43
2022-09-09T07:03:14.581Z,18.55
2022-09-09T07:05:45.312Z,18.87
2022-09-09T07:08:14.999Z,19.03
2022-09-09T07:10:44.803Z,19.07
2022-09-09T07:13:16.699Z,19.06
2022-09-09T07:15:46.446Z,18.91
2022-09-09T07:18:16.342Z,18.60
2022-09-09T07:20:44.877Z,18.56
2022-09-09T07:23:13.205Z,18.83
2022-09-09T07:25:50.849Z,18.93
2022-09-09T07:28:20.867Z,18.96
2022-09-09T07:30:57.515Z,18.91
2022-09-09T07:33:28.273Z,19.00
2022-09-09T07:36:05.033Z,18.70
2022-09-09T07:38:34.406Z,18.88
2022-09-09T07:41:11.211Z,19.00
2022-09-09T07:43:42.825Z,18.94
2022-09-09T07:46:18.611Z,18.86
2022-09-09T07:48:47.380Z,18.73
2022-09-09T07:51:18.776Z,18.55
2022-09-09T07:53:47.933Z,18.69
2022-09-09T07:56:23.630Z,18.81
2022-09-09T07:58:54.306Z,18.68
2022-09-09T08:01:28.052Z,18.62
2022-09-09T08:04:03.233Z,18.60
2022-09-09T08:06:37.716Z,18.57
2022-09-09T08:09:09.228Z,18.82
2022-09-09T08:11:43.282Z,18.83
2022-09-09T08:14:13.993Z,18.96
2022-09-09T08:16:47.997Z,19.08
2022-09-09T08:19:22.049Z,19.16
2022-09-09T08:21:51.663Z,19.36
2022-09-09T08:24:22.696Z,19.42
2022-09-09T08:26:56.365Z,19.51
2022-09-09T08:29:31.654Z,19.72
2022-09-09T08:32:04.580Z,19.74
2022-09-09T08:34:35.017Z,19.91
2022-09-09T08:37:09.026Z,19.61
2022-09-09T08:39:41.676Z,19.67
2022-09-09T08:42:37.360Z,19.53
2022-09-09T08:45:40.367Z,19.11
2022-09-09T08:48:24.323Z,19.29
2022-09-09T08:51:03.281Z,19.37
2022-09-09T08:53:42.940Z,19.36
2022-09-09T08:56:16.347Z,19.42
2022-09-09T08:58:51.072Z,19.31
2022-09-09T09:01:51.476Z,19.37
2022-09-09T09:04:37.681Z,19.60
2022-09-09T09:07:14.628Z,19.52
2022-09-09T09:09:49.580Z,20.09
2022-09-09T09:12:21.092Z,20.51
2022-09-09T09:14:50.893Z,20.93
2022-09-09T09:17:22.008Z,21.02
2022-09-09T09:19:52.634Z,21.12
2022-09-09T09:22:23.399Z,21.49
2022-09-09T09:25:00.954Z,21.68
2022-09-09T09:27:35.123Z,22.13
2022-09-09T09:30:29.823Z,22.15
2022-09-09T09:33:07.940Z,22.03
2022-09-09T09:35:41.940Z,22.47
2022-09-09T09:41:08.298Z,23.50
2022-09-09T09:43:40.081Z,23.34
2022-09-09T09:46:24.843Z,23.08
2022-09-09T09:49:02.353Z,22.51
2022-09-09T09:51:35.605Z,23.40
2022-09-09T09:54:14.360Z,22.84
2022-09-09T09:56:45.824Z,22.33
2022-09-09T09:59:39.130Z,23.02
2022-09-09T10:02:20.055Z,22.52
2022-09-09T10:05:03.761Z,22.04
2022-09-09T10:07:35.258Z,22.51
2022-09-09T10:10:12.293Z,23.20
2022-09-09T10:12:46.320Z,22.84
2022-09-09T10:15:29.626Z,23.09
2022-09-09T10:18:08.671Z,22.83
2022-09-09T10:20:45.544Z,23.02
2022-09-09T10:23:29.757Z,23.44
2022-09-09T10:26:18.523Z,23.53
2022-09-09T10:29:03.840Z,23.58
2022-09-09T10:32:10.308Z,23.52
2022-09-09T10:34:54.062Z,23.58
2022-09-09T10:37:36.821Z,23.84
2022-09-09T10:40:19.307Z,23.79
2022-09-09T10:42:49.278Z,23.69
2022-09-09T10:45:21.415Z,23.73
2022-09-09T10:48:18.175Z,24.18
2022-09-09T10:51:01.122Z,24.06
2022-09-09T10:53:41.590Z,24.38
2022-09-09T10:56:15.104Z,24.43
2022-09-09T10:58:48.871Z,24.35
2022-09-09T11:01:23.564Z,23.83
2022-09-09T11:03:56.526Z,23.39
2022-09-09T11:06:30.369Z,23.04
2022-09-09T11:09:03.629Z,22.93
2022-09-09T11:11:38.811Z,23.06
2022-09-09T11:14:15.271Z,23.10
2022-09-09T11:16:46.717Z,22.66
2022-09-09T11:19:20.206Z,22.91
2022-09-09T11:21:50.704Z,22.82
2022-09-09T11:24:24.051Z,22.74
2022-09-09T11:26:58.308Z,22.62
2022-09-09T11:29:45.977Z,22.60
2022-09-09T11:32:41.295Z,23.16
2022-09-09T11:35:40.063Z,23.15
2022-09-09T11:38:24.512Z,23.02
2022-09-09T11:40:58.939Z,22.91
2022-09-09T11:43:31.872Z,22.64
2022-09-09T11:46:03.765Z,22.71
2022-09-09T11:48:36.187Z,22.09
2022-09-09T11:51:14.558Z,22.66
2022-09-09T11:53:52.615Z,22.92
2022-09-09T11:56:29.594Z,22.87
2022-09-09T11:59:01.902Z,23.09
2022-09-09T12:01:38.303Z,23.21
2022-09-09T12:04:30.953Z,23.13
2022-09-09T12:07:01.963Z,23.42
2022-09-09T12:09:35.743Z,22.84
2022-09-09T12:12:11.015Z,23.29
2022-09-09T12:14:46.559Z,23.46
2022-09-09T12:17:23.700Z,22.60
2022-09-09T12:20:08.715Z,22.81
2022-09-09T12:22:44.544Z,23.01
2022-09-09T12:25:37.502Z,22.92
2022-09-09T12:28:13.843Z,23.01
2022-09-09T12:30:52.999Z,22.87
2022-09-09T12:33:25.363Z,23.14
2022-09-09T12:36:15.836Z,22.27
2022-09-09T12:38:45.768Z,22.59
2022-09-09T12:41:24.263Z,23.22
2022-09-09T12:43:52.920Z,22.74
2022-09-09T12:46:38.310Z,23.33
2022-09-09T12:49:23.349Z,23.56
2022-09-09T12:51:53.013Z,22.94
2022-09-09T12:54:24.627Z,22.77
2022-09-09T12:56:55.491Z,22.82
2022-09-09T12:59:27.655Z,22.56
2022-09-09T13:02:03.863Z,23.26
2022-09-09T13:04:35.237Z,22.59
2022-09-09T13:07:12.685Z,22.82
2022-09-09T13:09:41.106Z,22.33
2022-09-09T13:12:16.852Z,22.67
2022-09-09T13:14:48.166Z,22.45
2022-09-09T13:17:30.045Z,22.62
2022-09-09T13:19:59.117Z,22.03
2022-09-09T13:22:34.219Z,21.79
2022-09-09T13:25:07.512Z,21.50
2022-09-09T13:27:40.645Z,22.03
2022-09-09T13:30:26.951Z,22.08
2022-09-09T13:33:19.500Z,21.84
2022-09-09T13:35:49.033Z,21.80
2022-09-09T13:38:18.176Z,21.55
2022-09-09T13:40:56.071Z,22.06
2022-09-09T13:43:26.384Z,22.04
2022-09-09T13:45:57.496Z,21.57
2022-09-09T13:48:28.405Z,21.62
2022-09-09T13:50:58.780Z,21.79
2022-09-09T13:53:27.697Z,21.86
2022-09-09T13:55:56.058Z,21.56
2022-09-09T13:58:26.315Z,21.21
2022-09-09T14:00:55.119Z,21.19
2022-09-09T14:03:23.830Z,21.62
2022-09-09T14:05:55.225Z,21.55
2022-09-09T14:08:27.266Z,21.60
2022-09-09T14:10:59.777Z,21.31
2022-09-09T14:13:28.001Z,21.13
2022-09-09T14:15:56.277Z,21.47
2022-09-09T14:18:26.516Z,21.23
2022-09-09T14:20:56.527Z,20.65
2022-09-09T14:23:28.409Z,20.71
2022-09-09T14:25:58.906Z,20.51
2022-09-09T14:28:51.938Z,20.48
2022-09-09T14:31:22.083Z,20.23
2022-09-09T14:33:51.271Z,20.38
2022-09-09T14:36:22.234Z,20.18
2022-09-09T14:38:52.359Z,20.21
2022-09-09T14:41:23.702Z,19.87
2022-09-09T14:43:52.705Z,20.23
2022-09-09T14:46:23.528Z,20.10
2022-09-09T14:48:52.124Z,20.14
2022-09-09T14:51:24.090Z,20.28
2022-09-09T14:53:55.185Z,20.45
2022-09-09T14:56:25.598Z,20.58
2022-09-09T14:58:55.726Z,20.05
2022-09-09T15:01:24.996Z,20.28
2022-09-09T15:03:54.851Z,20.15
2022-09-09T15:06:25.274Z,20.17
2022-09-09T15:08:54.956Z,20.04
2022-09-09T15:11:49.833Z,19.47
2022-09-09T15:14:22.279Z,19.69
2022-09-09T15:16:54.371Z,19.28
2022-09-09T15:19:22.547Z,19.21
2022-09-09T15:21:52.607Z,19.08
2022-09-09T15:24:20.945Z,19.10
2022-09-09T15:26:49.658Z,18.92
2022-09-09T15:29:17.960Z,18.88
2022-09-09T15:31:46.640Z,19.06
2022-09-09T15:34:17.550Z,18.91
2022-09-09T15:36:47.839Z,19.09
2022-09-09T15:39:19.146Z,19.39
2022-09-09T15:41:49.070Z,19.51
2022-09-09T15:44:17.923Z,19.43
2022-09-09T15:46:47.756Z,19.15
2022-09-09T15:49:18.516Z,19.27
2022-09-09T15:51:48.317Z,19.46
2022-09-09T15:54:19.541Z,19.39
2022-09-09T15:56:53.055Z,19.48
2022-09-09T15:59:23.975Z,19.66
2022-09-09T16:01:53.113Z,19.61
2022-09-09T16:04:24.474Z,19.55
2022-09-09T16:06:53.373Z,19.60
2022-09-09T16:09:23.355Z,19.65
2022-09-09T16:11:54.258Z,19.88
2022-09-09T16:14:22.915Z,20.03
2022-09-09T16:16:51.144Z,19.86
2022-09-09T16:19:20.106Z,19.78
2022-09-09T16:21:50.246Z,19.71
2022-09-09T16:24:20.177Z,19.84
2022-09-09T16:26:51.460Z,19.86
2022-09-09T16:29:20.671Z,19.94
2022-09-09T16:31:50.757Z,19.82
2022-09-09T16:34:20.535Z,19.65
2022-09-09T16:36:50.637Z,19.63
2022-09-09T16:39:22.027Z,19.62
2022-09-09T16:41:53.514Z,19.48
2022-09-09T16:44:23.199Z,19.49
2022-09-09T16:47:00.245Z,19.51
2022-09-09T16:49:32.558Z,19.40
2022-09-09T16:52:01.462Z,19.62
2022-09-09T16:54:30.715Z,19.43
2022-09-09T16:57:01.727Z,19.10
2022-09-09T16:59:32.764Z,19.04
2022-09-09T17:02:06.555Z,19.24
2022-09-09T17:04:34.879Z,19.38
2022-09-09T17:07:03.999Z,19.14
2022-09-09T17:09:32.531Z,19.08
2022-09-09T17:12:03.658Z,19.37
2022-09-09T17:14:33.208Z,19.10
2022-09-09T17:17:24.800Z,19.30
2022-09-09T17:19:51.605Z,19.02
2022-09-09T17:22:20.926Z,19.09
2022-09-09T17:24:49.913Z,18.99
2022-09-09T17:27:19.607Z,18.99
2022-09-09T17:29:48.079Z,18.86
2022-09-09T17:32:19.458Z,18.88
2022-09-09T17:34:49.279Z,19.03
2022-09-09T17:37:19.014Z,19.02
2022-09-09T17:39:49.032Z,18.89
2022-09-09T17:42:27.845Z,18.68
2022-09-09T17:44:58.435Z,18.65
2022-09-09T17:47:32.904Z,18.90
2022-09-09T17:50:01.345Z,18.65
2022-09-09T17:52:34.008Z,18.61
2022-09-09T17:55:12.894Z,18.58
2022-09-09T17:57:44.470Z,18.37
2022-09-09T18:00:14.999Z,18.45
2022-09-09T18:02:46.629Z,18.19
2022-09-09T18:05:16.351Z,18.75
2022-09-09T18:07:44.660Z,18.60
2022-09-09T18:10:13.214Z,18.38
2022-09-09T18:12:42.408Z,18.52
2022-09-09T18:15:14.391Z,18.45
2022-09-09T18:17:46.659Z,18.54
2022-09-09T18:20:15.768Z,18.69
2022-09-09T18:22:44.482Z,18.89
2022-09-09T18:25:12.811Z,18.55
2022-09-09T18:27:41.276Z,18.56
2022-09-09T18:30:12.483Z,18.76
2022-09-09T18:32:41.503Z,18.47
2022-09-09T18:35:10.868Z,18.63
2022-09-09T18:37:40.045Z,18.39
2022-09-09T18:40:09.182Z,18.47
2022-09-09T18:42:37.513Z,18.41
2022-09-09T18:45:06.814Z,18.42
2022-09-09T18:47:37.526Z,18.10
2022-09-09T18:50:06.995Z,17.94
2022-09-09T18:52:35.437Z,18.20
2022-09-09T18:55:03.974Z,18.02
2022-09-09T18:57:36.397Z,18.33
2022-09-09T19:00:08.005Z,18.40
2022-09-09T19:02:39.241Z,18.34
2022-09-09T19:05:08.346Z,18.17
2022-09-09T19:07:36.866Z,18.39
2022-09-09T19:10:06.197Z,18.37
2022-09-09T19:12:34.661Z,18.13
2022-09-09T19:15:03.633Z,18.13
2022-09-09T19:17:33.640Z,17.72
2022-09-09T19:20:04.054Z,17.57
2022-09-09T19:22:32.516Z,17.62
2022-09-09T19:25:06.369Z,17.72
2022-09-09T19:27:34.972Z,17.31
2022-09-09T19:30:03.685Z,17.24
2022-09-09T19:35:23.228Z,17.37
2022-09-09T19:37:55.393Z,17.85
2022-09-09T19:40:24.496Z,17.40
2022-09-09T19:42:54.117Z,17.09
2022-09-09T19:45:22.784Z,17.21
2022-09-09T19:47:51.083Z,17.07
2022-09-09T19:50:20.396Z,16.59
2022-09-09T19:52:50.539Z,16.41
2022-09-09T19:55:19.496Z,16.18
2022-09-09T19:57:48.577Z,16.17
2022-09-09T20:00:19.402Z,16.24
2022-09-09T20:03:15.262Z,16.10
2022-09-09T20:05:39.372Z,16.21
2022-09-09T20:08:09.172Z,16.30
2022-09-09T20:10:37.748Z,15.98
2022-09-09T20:13:06.446Z,15.86
2022-09-09T20:15:35.863Z,15.86
2022-09-09T20:18:04.766Z,15.87
2022-09-09T20:20:33.550Z,15.54
2022-09-09T20:23:04.079Z,15.50
2022-09-09T20:25:37.295Z,15.42
2022-09-09T20:28:06.112Z,15.62
2022-09-09T20:30:38.450Z,15.50
2022-09-09T20:33:08.334Z,15.59
2022-09-09T20:35:36.756Z,15.80
2022-09-09T20:38:05.078Z,15.82
2022-09-09T20:40:37.527Z,16.00
2022-09-09T20:43:06.825Z,15.92
2022-09-09T20:45:38.311Z,15.80
2022-09-09T20:48:07.429Z,15.93
2022-09-09T20:50:37.172Z,15.69
2022-09-09T20:53:06.487Z,15.97
2022-09-09T20:55:36.319Z,16.18
2022-09-09T20:58:05.267Z,15.88
2022-09-09T21:00:34.224Z,15.99
2022-09-09T21:03:02.495Z,16.17
2022-09-09T21:05:30.992Z,15.96
2022-09-09T21:07:59.685Z,15.76
2022-09-09T21:10:27.962Z,15.71
2022-09-09T21:12:58.527Z,15.79
2022-09-09T21:15:28.749Z,15.96
2022-09-09T21:17:57.128Z,16.01
2022-09-09T21:20:26.854Z,15.54
2022-09-09T21:22:55.239Z,15.70
2022-09-09T21:25:24.638Z,15.63
2022-09-09T21:27:53.289Z,15.90
2022-09-09T21:30:31.586Z,15.85
2022-09-09T21:33:06.263Z,15.49
2022-09-09T21:35:36.649Z,15.49
2022-09-09T21:38:04.964Z,15.59
2022-09-09T21:40:33.356Z,15.59
2022-09-09T21:43:04.351Z,15.91
2022-09-09T21:45:36.269Z,15.95
2022-09-09T21:48:04.880Z,15.79
2022-09-09T21:50:37.175Z,15.87
2022-09-09T21:53:06.375Z,15.79
2022-09-09T21:55:36.479Z,15.69
2022-09-09T21:58:05.216Z,15.84
2022-09-09T22:00:37.059Z,15.69
2022-09-09T22:03:05.329Z,15.70
2022-09-09T22:05:33.894Z,15.71
2022-09-09T22:08:02.389Z,15.61
2022-09-09T22:10:30.626Z,15.69
2022-09-09T22:12:58.963Z,15.73
2022-09-09T22:15:27.945Z,15.70
2022-09-09T22:18:02.101Z,15.89
2022-09-09T22:20:33.479Z,15.85
2022-09-09T22:23:02.656Z,15.84
2022-09-09T22:25:35.322Z,15.79
2022-09-09T22:28:03.918Z,15.74
2022-09-09T22:30:32.181Z,15.81
2022-09-09T22:33:02.645Z,16.01
2022-09-09T22:35:33.348Z,15.84
2022-09-09T22:38:02.330Z,15.84
2022-09-09T22:40:30.545Z,15.83
2022-09-09T22:42:59.358Z,15.54
2022-09-09T22:45:28.096Z,15.58
2022-09-09T22:47:57.221Z,15.57
2022-09-09T22:50:27.946Z,15.61
2022-09-09T22:52:56.375Z,15.58
2022-09-09T22:55:26.130Z,15.58
2022-09-09T22:57:54.657Z,15.54
2022-09-09T23:00:23.089Z,15.55
2022-09-09T23:02:51.927Z,15.87
2022-09-09T23:05:21.913Z,15.80
2022-09-09T23:07:53.741Z,15.81
2022-09-09T23:10:21.934Z,15.66
2022-09-09T23:12:50.084Z,15.60
2022-09-09T23:15:18.380Z,15.44
2022-09-09T23:17:46.735Z,15.38
2022-09-09T23:20:14.939Z,15.36
2022-09-09T23:22:43.513Z,15.43
2022-09-09T23:25:13.333Z,15.34
2022-09-09T23:27:41.693Z,15.25
2022-09-09T23:30:12.014Z,15.21
2022-09-09T23:32:40.286Z,15.23
2022-09-09T23:35:09.278Z,15.25
2022-09-09T23:37:37.498Z,15.27
2022-09-09T23:40:06.782Z,15.31
2022-09-09T23:42:36.467Z,15.37
2022-09-09T23:45:05.258Z,15.35
2022-09-09T23:47:33.566Z,15.37
2022-09-09T23:50:02.528Z,15.42
2022-09-09T23:52:31.906Z,15.39
2022-09-09T23:55:00.304Z,15.42
2022-09-09T23:57:28.532Z,15.36
2022-09-09T23:59:58.186Z,15.41
